createdAt,value
2017-03-25T00:01:03.811Z,17.11
2017-03-25T00:02:13.750Z,17.11
2017-03-25T00:03:24.019Z,17.11
2017-03-25T00:04:34.286Z,17.11
2017-03-25T00:05:44.551Z,17.11
2017-03-25T00:06:54.501Z,17.11
2017-03-25T00:08:04.449Z,16.92
2017-03-25T00:09:14.719Z,16.92
2017-03-25T00:10:24.672Z,16.92
2017-03-25T00:11:34.938Z,17.11
2017-03-25T00:12:45.220Z,17.11
2017-03-25T00:13:55.432Z,16.92
2017-03-25T00:15:05.704Z,17.11
2017-03-25T00:16:15.977Z,16.92
2017-03-25T00:17:26.242Z,17.21
2017-03-25T00:18:36.218Z,17.01
2017-03-25T00:21:33.825Z,17.01
2017-03-25T00:22:43.784Z,17.21
2017-03-25T00:23:53.139Z,17.11
2017-03-25T00:25:03.108Z,16.92
2017-03-25T00:26:13.371Z,17.01
2017-03-25T00:27:23.634Z,17.11
2017-03-25T00:28:33.604Z,17.4
2017-03-25T00:29:43.880Z,17.4
2017-03-25T00:30:53.543Z,17.3
2017-03-25T00:32:03.748Z,17.4
2017-03-25T00:33:13.401Z,17.11
2017-03-25T00:34:23.355Z,17.3
2017-03-25T00:35:33.008Z,17.21
2017-03-25T00:36:42.649Z,17.3
2017-03-25T00:37:53.165Z,17.3
2017-03-25T00:39:03.130Z,17.4
2017-03-25T00:40:12.768Z,17.21
2017-03-25T00:41:22.730Z,17.49
2017-03-25T00:42:32.683Z,17.3
2017-03-25T00:43:42.899Z,17.4
2017-03-25T00:44:53.171Z,17.4
2017-03-25T00:46:03.445Z,17.21
2017-03-25T00:47:12.772Z,17.21
2017-03-25T00:48:22.747Z,17.21
2017-03-25T00:49:32.955Z,17.3
2017-03-25T00:50:43.223Z,17.3
2017-03-25T00:51:52.872Z,17.4
2017-03-25T00:53:02.831Z,17.21
2017-03-25T00:54:12.790Z,17.4
2017-03-25T00:55:22.682Z,17.4
2017-03-25T00:56:32.968Z,17.21
2017-03-25T00:57:42.936Z,17.11
2017-03-25T00:58:53.199Z,17.21
2017-03-25T01:00:03.173Z,17.11
2017-03-25T01:01:13.390Z,17.21
2017-03-25T01:02:23.665Z,17.21
2017-03-25T01:03:33.628Z,17.21
2017-03-25T01:04:43.897Z,17.49
2017-03-25T01:05:53.897Z,17.11
2017-03-25T01:07:04.108Z,17.3
2017-03-25T01:08:14.376Z,17.11
2017-03-25T01:09:24.648Z,17.11
2017-03-25T01:10:34.606Z,17.4
2017-03-25T01:11:44.563Z,17.11
2017-03-25T01:12:54.766Z,17.49
2017-03-25T01:14:05.084Z,17.3
2017-03-25T01:15:15.359Z,17.21
2017-03-25T01:16:25.002Z,17.3
2017-03-25T01:17:34.963Z,17.11
2017-03-25T01:18:45.220Z,17.4
2017-03-25T01:19:55.501Z,17.21
2017-03-25T01:21:05.456Z,17.21
2017-03-25T01:22:15.410Z,17.21
2017-03-25T01:23:25.682Z,17.21
2017-03-25T01:24:35.893Z,17.49
2017-03-25T01:25:45.849Z,17.59
2017-03-25T01:26:56.119Z,17.3
2017-03-25T01:28:06.388Z,17.21
2017-03-25T01:29:16.034Z,17.3
2017-03-25T01:30:26.561Z,17.11
2017-03-25T01:31:36.528Z,17.11
2017-03-25T01:32:46.482Z,17.21
2017-03-25T01:33:56.746Z,17.3
2017-03-25T01:35:06.703Z,17.11
2017-03-25T01:36:17.220Z,17.3
2017-03-25T01:37:26.869Z,17.11
2017-03-25T01:38:36.830Z,17.21
2017-03-25T01:39:47.093Z,17.21
2017-03-25T01:40:57.054Z,17.3
2017-03-25T01:42:07.268Z,17.21
2017-03-25T01:43:16.600Z,17.29
2017-03-25T01:44:26.236Z,17.3
2017-03-25T01:45:35.884Z,17.11
2017-03-25T01:46:46.197Z,17.11
2017-03-25T01:47:56.709Z,17.3
2017-03-25T01:49:06.669Z,17.4
2017-03-25T01:50:16.947Z,17.3
2017-03-25T01:51:27.214Z,17.21
2017-03-25T01:52:37.488Z,17.3
2017-03-25T01:53:48.005Z,17.4
2017-03-25T01:54:58.278Z,17.4
2017-03-25T01:56:08.541Z,17.21
2017-03-25T01:57:18.519Z,17.3
2017-03-25T01:58:28.790Z,17.4
2017-03-25T01:59:39.331Z,17.4
2017-03-25T02:00:49.590Z,17.4
2017-03-25T02:01:59.234Z,17.3
2017-03-25T02:03:09.501Z,17.29
2017-03-25T02:04:19.143Z,17.29
2017-03-25T02:05:29.661Z,17.3
2017-03-25T02:06:39.621Z,17.4
2017-03-25T02:07:49.575Z,17.21
2017-03-25T02:08:59.863Z,17.39
2017-03-25T02:10:10.132Z,17.49
2017-03-25T02:11:20.335Z,17.21
2017-03-25T02:12:29.989Z,17.4
2017-03-25T02:13:40.259Z,17.39
2017-03-25T02:14:50.518Z,17.4
2017-03-25T02:16:00.789Z,17.4
2017-03-25T02:17:10.990Z,17.4
2017-03-25T02:18:20.650Z,17.4
2017-03-25T02:19:30.611Z,17.11
2017-03-25T02:20:40.576Z,17.4
2017-03-25T02:21:50.841Z,17.3
2017-03-25T02:23:01.360Z,17.4
2017-03-25T02:24:11.002Z,17.3
2017-03-25T02:25:20.958Z,17.29
2017-03-25T02:26:30.930Z,17.21
2017-03-25T02:27:40.892Z,17.3
2017-03-25T02:28:50.786Z,17.4
2017-03-25T02:30:01.088Z,17.4
2017-03-25T02:31:10.733Z,17.49
2017-03-25T02:32:20.999Z,17.21
2017-03-25T02:33:30.679Z,17.21
2017-03-25T02:34:41.200Z,17.11
2017-03-25T02:35:50.845Z,17.3
2017-03-25T02:37:00.809Z,17.21
2017-03-25T02:38:10.454Z,17.21
2017-03-25T02:39:20.725Z,17.21
2017-03-25T02:40:30.930Z,17.21
2017-03-25T02:41:40.885Z,17.21
2017-03-25T02:42:51.149Z,17.21
2017-03-25T02:44:00.801Z,17.4
2017-03-25T02:45:11.069Z,17.4
2017-03-25T02:46:21.592Z,17.21
2017-03-25T02:47:31.594Z,17.21
2017-03-25T02:48:41.861Z,17.3
2017-03-25T02:49:51.818Z,17.49
2017-03-25T02:51:02.086Z,17.21
2017-03-25T02:52:12.344Z,17.21
2017-03-25T02:53:22.308Z,17.11
2017-03-25T02:54:32.586Z,17.49
2017-03-25T02:55:42.866Z,17.3
2017-03-25T02:56:53.146Z,17.11
2017-03-25T02:58:03.675Z,17.3
2017-03-25T02:59:13.944Z,17.21
2017-03-25T03:00:23.910Z,17.19
2017-03-25T03:01:33.972Z,17.4
2017-03-25T03:02:44.241Z,17.19
2017-03-25T03:03:54.463Z,17.49
2017-03-25T03:05:04.121Z,17.19
2017-03-25T03:06:14.402Z,17.19
2017-03-25T03:07:24.679Z,17.11
2017-03-25T03:08:34.640Z,17.19
2017-03-25T03:09:44.862Z,17.19
2017-03-25T03:10:55.130Z,17.1
2017-03-25T03:12:05.095Z,17.11
2017-03-25T03:13:14.746Z,17.1
2017-03-25T03:14:24.701Z,17.19
2017-03-25T03:15:34.916Z,17.19
2017-03-25T03:16:44.871Z,17.49
2017-03-25T03:17:55.150Z,17.49
2017-03-25T03:19:05.423Z,17.39
2017-03-25T03:20:15.387Z,17.39
2017-03-25T03:21:25.288Z,17.39
2017-03-25T03:22:35.249Z,17.39
2017-03-25T03:23:45.530Z,17.29
2017-03-25T03:24:55.802Z,17.39
2017-03-25T03:26:05.771Z,17.39
2017-03-25T03:27:16.285Z,17.19
2017-03-25T03:28:26.245Z,17.39
2017-03-25T03:29:35.905Z,17.39
2017-03-25T03:30:45.861Z,17.19
2017-03-25T03:31:55.823Z,17.19
2017-03-25T03:33:06.031Z,17.29
2017-03-25T03:34:16.002Z,17.39
2017-03-25T03:35:26.276Z,17.49
2017-03-25T03:36:36.555Z,17.39
2017-03-25T03:37:46.828Z,17.39
2017-03-25T03:38:57.058Z,17.39
2017-03-25T03:40:07.329Z,17.39
2017-03-25T03:41:16.993Z,17.19
2017-03-25T03:42:27.013Z,17.29
2017-03-25T03:43:37.282Z,17.19
2017-03-25T03:44:47.495Z,17.1
2017-03-25T03:45:57.781Z,17.1
2017-03-25T03:47:07.115Z,17
2017-03-25T03:48:17.392Z,17.29
2017-03-25T03:49:27.667Z,17.1
2017-03-25T03:50:38.234Z,17.19
2017-03-25T03:51:48.496Z,17.1
2017-03-25T03:52:58.763Z,17.19
2017-03-25T03:54:08.719Z,17
2017-03-25T03:55:19.007Z,17.19
2017-03-25T03:56:29.567Z,17
2017-03-25T03:57:39.535Z,17.19
2017-03-25T03:58:49.808Z,17.1
2017-03-25T04:00:00.068Z,17
2017-03-25T04:01:10.333Z,17
2017-03-25T04:02:20.541Z,17
2017-03-25T04:03:30.502Z,16.91
2017-03-25T04:04:40.775Z,16.91
2017-03-25T04:05:50.738Z,17
2017-03-25T04:07:01.006Z,16.81
2017-03-25T04:08:11.578Z,16.91
2017-03-25T04:09:21.861Z,17.1
2017-03-25T04:10:32.138Z,17
2017-03-25T04:11:42.099Z,16.91
2017-03-25T04:12:52.058Z,17
2017-03-25T04:14:02.272Z,16.91
2017-03-25T04:15:12.234Z,16.91
2017-03-25T04:16:22.198Z,16.91
2017-03-25T04:17:32.476Z,16.91
2017-03-25T04:18:42.752Z,16.81
2017-03-25T04:19:52.660Z,16.91
2017-03-25T04:21:02.935Z,17.19
2017-03-25T04:22:13.211Z,17.19
2017-03-25T04:23:22.860Z,16.91
2017-03-25T04:24:33.140Z,17
2017-03-25T04:25:43.355Z,17
2017-03-25T04:26:53.621Z,16.91
2017-03-25T04:28:03.611Z,17.19
2017-03-25T04:29:13.587Z,17.19
2017-03-25T04:30:23.588Z,16.81
2017-03-25T04:31:34.112Z,16.72
2017-03-25T04:32:44.379Z,17.19
2017-03-25T04:33:54.654Z,16.91
2017-03-25T04:35:04.927Z,16.72
2017-03-25T04:36:15.207Z,17.1
2017-03-25T04:37:25.735Z,16.81
2017-03-25T04:38:36.015Z,16.91
2017-03-25T04:39:45.351Z,17.19
2017-03-25T04:40:55.315Z,16.72
2017-03-25T04:42:05.597Z,16.81
2017-03-25T04:43:15.861Z,17.19
2017-03-25T04:44:26.206Z,17.19
2017-03-25T04:45:36.160Z,16.72
2017-03-25T04:46:46.426Z,16.72
2017-03-25T04:47:56.711Z,16.72
2017-03-25T04:49:07.284Z,17
2017-03-25T04:50:17.611Z,16.72
2017-03-25T04:51:27.563Z,16.81
2017-03-25T04:52:37.522Z,17
2017-03-25T04:53:47.801Z,16.81
2017-03-25T04:54:57.750Z,17
2017-03-25T04:56:07.708Z,16.81
2017-03-25T04:57:17.980Z,16.91
2017-03-25T04:58:28.253Z,17
2017-03-25T04:59:38.519Z,17
2017-03-25T05:00:48.725Z,16.72
2017-03-25T05:01:58.681Z,16.72
2017-03-25T05:03:08.945Z,16.72
2017-03-25T05:04:19.226Z,16.72
2017-03-25T05:05:29.503Z,16.81
2017-03-25T05:06:39.709Z,16.72
2017-03-25T05:07:49.356Z,17
2017-03-25T05:08:59.029Z,17.1
2017-03-25T05:10:09.312Z,16.81
2017-03-25T05:11:19.579Z,16.81
2017-03-25T05:12:29.789Z,16.72
2017-03-25T05:13:39.449Z,16.42
2017-03-25T05:14:49.719Z,16.52
2017-03-25T05:15:59.992Z,16.52
2017-03-25T05:17:09.944Z,16.52
2017-03-25T05:18:20.154Z,16.52
2017-03-25T05:19:30.423Z,16.33
2017-03-25T05:20:40.696Z,16.42
2017-03-25T05:21:50.654Z,16.14
2017-03-25T05:23:00.624Z,16.04
2017-03-25T05:24:11.150Z,15.95
2017-03-25T05:25:21.468Z,15.95
2017-03-25T05:26:31.116Z,16.14
2017-03-25T05:27:41.091Z,16.04
2017-03-25T05:28:51.054Z,16.14
2017-03-25T05:30:01.630Z,15.95
2017-03-25T05:31:11.901Z,16.04
2017-03-25T05:32:21.543Z,16.04
2017-03-25T05:33:31.815Z,15.95
2017-03-25T05:34:41.777Z,15.85
2017-03-25T05:35:52.300Z,15.56
2017-03-25T05:37:02.275Z,15.66
2017-03-25T05:38:12.538Z,15.56
2017-03-25T05:39:22.813Z,15.75
2017-03-25T05:40:32.784Z,15.77
2017-03-25T05:41:43.044Z,15.85
2017-03-25T05:42:53.323Z,15.66
2017-03-25T05:44:03.606Z,15.85
2017-03-25T05:45:13.871Z,15.75
2017-03-25T05:46:23.522Z,15.75
2017-03-25T05:47:34.038Z,15.66
2017-03-25T05:48:43.991Z,15.47
2017-03-25T05:49:53.643Z,15.66
2017-03-25T05:51:03.912Z,15.66
2017-03-25T05:52:14.187Z,15.66
2017-03-25T05:53:24.398Z,15.56
2017-03-25T05:54:34.685Z,15.28
2017-03-25T05:55:44.655Z,15.18
2017-03-25T05:56:54.621Z,15.18
2017-03-25T05:58:04.592Z,15.08
2017-03-25T05:59:15.114Z,15.18
2017-03-25T06:00:25.077Z,15.08
2017-03-25T06:01:35.033Z,15.08
2017-03-25T06:02:44.996Z,15.18
2017-03-25T06:03:55.272Z,15.18
2017-03-25T06:05:05.185Z,14.89
2017-03-25T06:06:15.155Z,14.89
2017-03-25T06:07:25.425Z,14.98
2017-03-25T06:08:35.387Z,14.98
2017-03-25T06:09:45.371Z,14.89
2017-03-25T06:10:55.902Z,14.79
2017-03-25T06:12:06.182Z,14.89
2017-03-25T06:13:16.456Z,14.98
2017-03-25T06:14:26.733Z,14.89
2017-03-25T06:15:36.686Z,14.79
2017-03-25T06:16:46.913Z,15
2017-03-25T06:17:56.573Z,14.89
2017-03-25T06:19:06.235Z,14.89
2017-03-25T06:20:15.583Z,14.98
2017-03-25T06:21:25.852Z,15.08
2017-03-25T06:22:36.577Z,15.08
2017-03-25T06:23:46.862Z,14.79
2017-03-25T06:24:56.522Z,14.7
2017-03-25T06:26:06.808Z,14.7
2017-03-25T06:27:17.074Z,14.51
2017-03-25T06:28:27.437Z,14.32
2017-03-25T06:29:37.342Z,14.23
2017-03-25T06:30:47.634Z,14.32
2017-03-25T06:31:57.905Z,14.51
2017-03-25T06:33:07.866Z,14.32
2017-03-25T06:34:17.769Z,14.32
2017-03-25T06:35:27.731Z,14.32
2017-03-25T06:36:37.995Z,14.32
2017-03-25T06:37:47.950Z,14.51
2017-03-25T06:38:57.611Z,14.32
2017-03-25T06:40:07.877Z,14.51
2017-03-25T06:41:17.534Z,14.51
2017-03-25T06:42:27.185Z,14.42
2017-03-25T06:43:37.157Z,14.32
2017-03-25T06:44:47.439Z,14.51
2017-03-25T06:45:57.700Z,14.51
2017-03-25T06:47:07.984Z,14.22
2017-03-25T06:48:17.944Z,14.51
2017-03-25T06:49:28.241Z,14.61
2017-03-25T06:50:38.215Z,14.42
2017-03-25T06:51:48.480Z,14.23
2017-03-25T06:52:58.131Z,14.23
2017-03-25T06:54:07.785Z,14.42
2017-03-25T06:55:17.739Z,14.31
2017-03-25T06:56:27.710Z,14.51
2017-03-25T06:57:37.991Z,14.32
2017-03-25T06:58:47.956Z,14.51
2017-03-25T06:59:57.600Z,14.42
2017-03-25T07:01:07.265Z,14.42
2017-03-25T07:02:17.229Z,14.61
2017-03-25T07:03:27.436Z,14.51
2017-03-25T07:04:37.709Z,14.41
2017-03-25T07:05:48.450Z,14.51
2017-03-25T07:06:58.414Z,14.7
2017-03-25T07:08:08.371Z,14.32
2017-03-25T07:09:18.593Z,14.6
2017-03-25T07:10:28.564Z,14.42
2017-03-25T07:11:38.521Z,14.41
2017-03-25T07:12:48.477Z,14.32
2017-03-25T07:13:58.445Z,14.42
2017-03-25T07:15:08.964Z,14.51
2017-03-25T07:16:18.926Z,14.42
2017-03-25T07:17:28.574Z,14.51
2017-03-25T07:18:38.849Z,14.42
2017-03-25T07:19:48.818Z,14.32
2017-03-25T07:20:59.250Z,14.61
2017-03-25T07:22:09.522Z,14.23
2017-03-25T07:23:19.810Z,14.42
2017-03-25T07:24:30.088Z,14.32
2017-03-25T07:25:39.419Z,14.42
2017-03-25T07:26:49.632Z,14.51
2017-03-25T07:27:59.915Z,14.42
2017-03-25T07:29:10.192Z,14.32
2017-03-25T07:30:20.162Z,14.51
2017-03-25T07:31:30.427Z,14.23
2017-03-25T07:32:40.334Z,14.32
2017-03-25T07:33:50.614Z,14.51
2017-03-25T07:35:00.574Z,14.61
2017-03-25T07:36:10.531Z,14.32
2017-03-25T07:37:20.805Z,14.32
2017-03-25T07:38:31.024Z,14.51
2017-03-25T07:39:40.996Z,14.32
2017-03-25T07:40:51.271Z,14.23
2017-03-25T07:42:01.547Z,14.42
2017-03-25T07:43:11.200Z,14.42
2017-03-25T07:44:21.422Z,14.61
2017-03-25T07:45:31.121Z,14.51
2017-03-25T07:46:40.755Z,14.51
2017-03-25T07:47:50.399Z,14.61
2017-03-25T07:49:00.376Z,14.42
2017-03-25T07:50:10.601Z,14.42
2017-03-25T07:51:20.878Z,14.61
2017-03-25T07:52:30.837Z,14.51
2017-03-25T07:53:41.130Z,14.51
2017-03-25T07:54:51.413Z,14.61
2017-03-25T07:56:01.951Z,14.51
2017-03-25T07:57:11.915Z,14.23
2017-03-25T07:58:21.909Z,14.32
2017-03-25T07:59:31.884Z,14.32
2017-03-25T08:00:42.159Z,14.23
2017-03-25T08:01:52.693Z,14.42
2017-03-25T08:03:02.972Z,14.32
2017-03-25T08:04:13.264Z,14.32
2017-03-25T08:05:23.537Z,14.13
2017-03-25T08:06:33.499Z,14.32
2017-03-25T08:07:43.736Z,14.13
2017-03-25T08:08:54.079Z,14.42
2017-03-25T08:10:04.039Z,14.23
2017-03-25T08:11:13.993Z,14.42
2017-03-25T08:12:23.646Z,14.42
2017-03-25T08:13:33.869Z,14.32
2017-03-25T08:14:44.150Z,14.42
2017-03-25T08:15:53.816Z,14.23
2017-03-25T08:17:03.784Z,14.23
2017-03-25T08:18:14.070Z,14.32
2017-03-25T08:19:23.719Z,14.32
2017-03-25T08:20:34.005Z,14.32
2017-03-25T08:21:43.970Z,14.32
2017-03-25T08:22:53.929Z,14.51
2017-03-25T08:24:03.894Z,14.23
2017-03-25T08:25:14.437Z,14.32
2017-03-25T08:26:24.703Z,14.13
2017-03-25T08:27:34.994Z,14.23
2017-03-25T08:28:45.276Z,14.03
2017-03-25T08:29:55.255Z,14.51
2017-03-25T08:31:05.518Z,14.42
2017-03-25T08:32:15.475Z,14.51
2017-03-25T08:33:25.772Z,14.51
2017-03-25T08:34:35.742Z,14.42
2017-03-25T08:35:46.021Z,14.51
2017-03-25T08:36:56.279Z,14.61
2017-03-25T08:38:06.550Z,14.51
2017-03-25T08:39:16.518Z,14.61
2017-03-25T08:40:26.470Z,14.51
2017-03-25T08:41:36.434Z,14.61
2017-03-25T08:42:46.655Z,14.61
2017-03-25T08:43:56.947Z,14.51
2017-03-25T08:45:07.260Z,14.7
2017-03-25T08:46:16.916Z,14.51
2017-03-25T08:47:26.876Z,14.51
2017-03-25T08:48:37.104Z,14.51
2017-03-25T08:49:47.083Z,14.51
2017-03-25T08:50:57.063Z,14.51
2017-03-25T08:52:07.025Z,14.61
2017-03-25T08:53:16.999Z,14.51
2017-03-25T08:54:27.218Z,14.51
2017-03-25T08:55:37.516Z,14.51
2017-03-25T08:56:47.468Z,14.51
2017-03-25T08:57:57.748Z,14.42
2017-03-25T08:59:07.402Z,14.51
2017-03-25T09:00:17.934Z,14.32
2017-03-25T09:01:27.589Z,14.42
2017-03-25T09:02:37.867Z,14.42
2017-03-25T09:03:48.147Z,14.32
2017-03-25T09:04:58.433Z,14.13
2017-03-25T09:06:08.959Z,14.51
2017-03-25T09:07:18.296Z,14.13
2017-03-25T09:08:27.959Z,14.13
2017-03-25T09:09:38.241Z,14.42
2017-03-25T09:10:47.882Z,14.13
2017-03-25T09:11:58.418Z,14.23
2017-03-25T09:13:08.693Z,14.23
2017-03-25T09:14:18.346Z,14.23
2017-03-25T09:15:28.009Z,14.13
2017-03-25T09:16:37.681Z,14.13
2017-03-25T09:17:48.201Z,14.13
2017-03-25T09:18:58.483Z,14.03
2017-03-25T09:20:08.772Z,14.32
2017-03-25T09:21:19.095Z,14.14
2017-03-25T09:22:29.063Z,13.93
2017-03-25T09:23:39.642Z,13.93
2017-03-25T09:24:49.921Z,14.03
2017-03-25T09:25:59.903Z,13.94
2017-03-25T09:27:10.176Z,14.13
2017-03-25T09:28:20.455Z,14.03
2017-03-25T09:29:30.997Z,13.65
2017-03-25T09:30:41.282Z,13.84
2017-03-25T09:31:50.934Z,13.84
2017-03-25T09:33:00.906Z,14.03
2017-03-25T09:34:11.183Z,13.75
2017-03-25T09:35:21.403Z,13.75
2017-03-25T09:36:31.372Z,13.93
2017-03-25T09:37:41.643Z,13.55
2017-03-25T09:38:51.299Z,13.36
2017-03-25T09:40:01.266Z,13.55
2017-03-25T09:41:11.484Z,13.55
2017-03-25T09:42:21.128Z,13.46
2017-03-25T09:43:31.416Z,13.46
2017-03-25T09:44:41.702Z,13.26
2017-03-25T09:45:51.986Z,13.26
2017-03-25T09:47:02.618Z,13.36
2017-03-25T09:48:12.590Z,12.98
2017-03-25T09:49:22.565Z,13.07
2017-03-25T09:50:32.222Z,13.08
2017-03-25T09:51:42.191Z,13.17
2017-03-25T09:52:52.472Z,12.88
2017-03-25T09:54:02.454Z,12.98
2017-03-25T09:55:12.111Z,12.88
2017-03-25T09:56:22.398Z,12.7
2017-03-25T09:57:32.689Z,12.59
2017-03-25T09:58:43.276Z,12.69
2017-03-25T09:59:52.943Z,12.69
2017-03-25T10:01:03.231Z,12.4
2017-03-25T10:02:13.506Z,12.21
2017-03-25T10:03:23.523Z,12.21
2017-03-25T10:04:33.856Z,12.21
2017-03-25T10:05:44.133Z,12.21
2017-03-25T10:06:54.087Z,12.11
2017-03-25T10:08:04.057Z,12.01
2017-03-25T10:09:14.338Z,11.92
2017-03-25T10:10:24.864Z,11.82
2017-03-25T10:11:34.828Z,11.83
2017-03-25T10:12:45.106Z,11.54
2017-03-25T10:13:55.083Z,11.25
2017-03-25T10:15:05.359Z,10.86
2017-03-25T10:16:15.259Z,11.06
2017-03-25T10:17:25.543Z,10.86
2017-03-25T10:18:35.832Z,10.77
2017-03-25T10:19:46.128Z,10.86
2017-03-25T10:20:56.468Z,10.96
2017-03-25T10:22:07.039Z,11.06
2017-03-25T10:23:16.695Z,10.57
2017-03-25T10:24:26.976Z,10.48
2017-03-25T10:25:36.932Z,10.48
2017-03-25T10:26:47.205Z,10.67
2017-03-25T10:27:57.735Z,10.48
2017-03-25T10:29:08.019Z,10.68
2017-03-25T10:30:18.289Z,10.19
2017-03-25T10:31:28.253Z,10.29
2017-03-25T10:32:38.225Z,9.9
2017-03-25T10:33:48.186Z,10.19
2017-03-25T10:34:58.484Z,10.19
2017-03-25T10:36:08.457Z,10
2017-03-25T10:37:18.424Z,9.81
2017-03-25T10:38:28.703Z,9.91
2017-03-25T10:39:39.226Z,10.09
2017-03-25T10:40:49.179Z,9.81
2017-03-25T10:41:59.144Z,10.1
2017-03-25T10:43:09.147Z,9.8
2017-03-25T10:44:19.428Z,10.09
2017-03-25T10:45:29.702Z,10.19
2017-03-25T10:46:39.670Z,9.61
2017-03-25T10:47:49.635Z,9.71
2017-03-25T10:48:59.601Z,9.71
2017-03-25T10:50:09.572Z,9.71
2017-03-25T10:51:19.161Z,9.71
2017-03-25T10:52:29.124Z,9.61
2017-03-25T10:53:38.794Z,9.81
2017-03-25T10:54:48.771Z,9.42
2017-03-25T10:55:59.051Z,9.52
2017-03-25T10:57:08.945Z,9.23
2017-03-25T10:58:18.921Z,9.33
2017-03-25T10:59:29.204Z,9.42
2017-03-25T11:00:39.179Z,9.42
2017-03-25T11:01:49.139Z,9.42
2017-03-25T11:02:59.664Z,9.42
2017-03-25T11:04:09.639Z,9.23
2017-03-25T11:05:19.296Z,9.33
2017-03-25T11:06:29.576Z,9.23
2017-03-25T11:07:39.852Z,9.23
2017-03-25T11:08:49.768Z,9.33
2017-03-25T11:09:59.742Z,9.23
2017-03-25T11:11:09.703Z,9.23
2017-03-25T11:12:19.355Z,9.04
2017-03-25T11:13:29.644Z,9.13
2017-03-25T11:14:40.165Z,9.13
2017-03-25T11:15:50.461Z,9.33
2017-03-25T11:17:00.109Z,9.23
2017-03-25T11:18:10.374Z,9.23
2017-03-25T11:19:20.657Z,9.52
2017-03-25T11:20:31.186Z,9.23
2017-03-25T11:21:41.150Z,9.04
2017-03-25T11:22:51.426Z,9.23
2017-03-25T11:24:01.397Z,9.13
2017-03-25T11:25:11.695Z,9.13
2017-03-25T11:26:22.278Z,9.13
2017-03-25T11:27:32.616Z,9.13
2017-03-25T11:28:42.900Z,8.94
2017-03-25T11:29:53.175Z,8.94
2017-03-25T11:31:03.144Z,9.13
2017-03-25T11:32:13.043Z,8.84
2017-03-25T11:33:22.697Z,9.23
2017-03-25T11:34:32.982Z,9.33
2017-03-25T11:35:43.279Z,9.04
2017-03-25T11:36:53.565Z,9.33
2017-03-25T11:38:04.171Z,9.23
2017-03-25T11:39:13.824Z,9.13
2017-03-25T11:40:23.789Z,9.13
2017-03-25T11:41:34.063Z,9.23
2017-03-25T11:42:43.726Z,9.13
2017-03-25T11:43:54.265Z,9.04
2017-03-25T11:45:04.548Z,9.23
2017-03-25T11:46:14.824Z,9.23
2017-03-25T11:47:25.102Z,9.23
2017-03-25T11:48:35.381Z,8.94
2017-03-25T11:49:45.309Z,9.23
2017-03-25T11:50:55.270Z,9.13
2017-03-25T11:52:04.933Z,8.84
2017-03-25T11:53:14.907Z,9.23
2017-03-25T11:54:25.190Z,9.23
2017-03-25T11:55:35.163Z,9.33
2017-03-25T11:56:45.449Z,9.04
2017-03-25T11:57:55.736Z,9.04
2017-03-25T11:59:06.074Z,9.23
2017-03-25T12:00:16.369Z,9.13
2017-03-25T12:01:25.957Z,9.23
2017-03-25T12:02:36.253Z,9.23
2017-03-25T12:03:46.557Z,9.33
2017-03-25T12:04:56.833Z,9.13
2017-03-25T12:06:06.501Z,9.13
2017-03-25T12:07:16.719Z,9.13
2017-03-25T12:08:26.685Z,9.23
2017-03-25T12:09:36.650Z,9.04
2017-03-25T12:10:46.621Z,9.23
2017-03-25T12:11:56.285Z,9.42
2017-03-25T12:13:06.501Z,9.13
2017-03-25T12:14:15.846Z,9.13
2017-03-25T12:15:25.812Z,9.13
2017-03-25T12:16:36.085Z,9.23
2017-03-25T12:17:45.744Z,9.33
2017-03-25T12:18:56.266Z,9.33
2017-03-25T12:20:06.233Z,9.33
2017-03-25T12:21:15.576Z,9.13
2017-03-25T12:22:25.532Z,9.23
2017-03-25T12:23:35.834Z,9.33
2017-03-25T12:24:45.741Z,9.23
2017-03-25T12:25:56.025Z,9.23
2017-03-25T12:27:06.288Z,9.13
2017-03-25T12:28:15.941Z,9.13
2017-03-25T12:29:25.601Z,9.33
2017-03-25T12:30:35.812Z,9.23
2017-03-25T12:31:46.095Z,9.33
2017-03-25T12:32:56.376Z,9.33
2017-03-25T12:34:06.658Z,9.42
2017-03-25T12:35:16.306Z,9.23
2017-03-25T12:36:26.887Z,9.13
2017-03-25T12:37:36.542Z,9.04
2017-03-25T12:38:46.511Z,9.04
2017-03-25T12:39:56.223Z,8.94
2017-03-25T12:41:06.510Z,9.52
2017-03-25T12:42:16.731Z,9.33
2017-03-25T12:43:27.018Z,9.23
2017-03-25T12:44:37.299Z,9.33
2017-03-25T12:45:47.576Z,9.33
2017-03-25T12:46:57.530Z,9.33
2017-03-25T12:48:07.749Z,9.23
2017-03-25T12:49:18.031Z,9.23
2017-03-25T12:50:28.038Z,9.33
2017-03-25T12:51:38.312Z,9.42
2017-03-25T12:52:48.595Z,9.42
2017-03-25T12:53:58.817Z,9.42
2017-03-25T12:55:09.106Z,9.33
2017-03-25T12:56:19.085Z,9.42
2017-03-25T12:57:29.367Z,9.42
2017-03-25T12:58:39.647Z,9.61
2017-03-25T12:59:50.196Z,9.52
2017-03-25T13:01:00.483Z,9.81
2017-03-25T13:02:10.451Z,9.81
2017-03-25T13:03:20.471Z,9.71
2017-03-25T13:04:30.750Z,9.71
2017-03-25T13:05:40.753Z,9.61
2017-03-25T13:06:51.024Z,9.52
2017-03-25T13:08:00.718Z,9.71
2017-03-25T13:09:10.378Z,9.52
2017-03-25T13:10:20.350Z,9.81
2017-03-25T13:11:30.665Z,9.42
2017-03-25T13:12:40.945Z,9.81
2017-03-25T13:13:50.922Z,9.81
2017-03-25T13:15:00.915Z,10.1
2017-03-25T13:16:10.560Z,10.1
2017-03-25T13:17:20.516Z,10.1
2017-03-25T13:18:30.480Z,10.1
2017-03-25T13:19:40.453Z,9.91
2017-03-25T13:20:50.771Z,10
2017-03-25T13:22:00.525Z,9.91
2017-03-25T13:23:11.060Z,9.81
2017-03-25T13:24:21.351Z,10
2017-03-25T13:25:31.643Z,10.1
2017-03-25T13:26:41.608Z,10
2017-03-25T13:27:51.583Z,10
2017-03-25T13:29:01.484Z,10.1
2017-03-25T13:30:11.457Z,10
2017-03-25T13:31:20.822Z,10
2017-03-25T13:32:30.790Z,10.1
2017-03-25T13:33:40.765Z,10.48
2017-03-25T13:34:51.341Z,10.19
2017-03-25T13:36:01.001Z,10.29
2017-03-25T13:37:11.284Z,10.48
2017-03-25T13:38:21.580Z,10.38
2017-03-25T13:39:31.536Z,10.48
2017-03-25T13:40:42.062Z,10.38
2017-03-25T13:41:52.337Z,10.58
2017-03-25T13:43:02.310Z,10.58
2017-03-25T13:44:12.588Z,10.68
2017-03-25T13:45:22.864Z,10.68
2017-03-25T13:46:33.390Z,10.48
2017-03-25T13:47:43.357Z,10.38
2017-03-25T13:48:53.338Z,10.86
2017-03-25T13:50:03.665Z,10.77
2017-03-25T13:51:13.943Z,10.48
2017-03-25T13:52:24.207Z,10.68
2017-03-25T13:53:34.494Z,11.06
2017-03-25T13:54:44.453Z,11.15
2017-03-25T13:55:54.427Z,11.06
2017-03-25T13:57:04.393Z,11.06
2017-03-25T13:58:14.661Z,10.96
2017-03-25T13:59:24.629Z,11.15
2017-03-25T14:00:33.975Z,10.96
2017-03-25T14:01:43.996Z,11.06
2017-03-25T14:02:54.271Z,11.25
2017-03-25T14:04:04.195Z,10.86
2017-03-25T14:05:14.151Z,11.06
2017-03-25T14:06:24.185Z,11.15
2017-03-25T14:07:34.156Z,11.25
2017-03-25T14:08:44.443Z,11.35
2017-03-25T14:09:54.674Z,11.15
2017-03-25T14:11:04.646Z,11.44
2017-03-25T14:12:14.927Z,11.44
2017-03-25T14:13:25.204Z,11.83
2017-03-25T14:14:35.180Z,11.63
2017-03-25T14:15:45.706Z,11.73
2017-03-25T14:16:55.990Z,11.73
2017-03-25T14:18:05.646Z,11.73
2017-03-25T14:19:15.918Z,11.44
2017-03-25T14:20:25.884Z,11.92
2017-03-25T14:21:36.455Z,12.12
2017-03-25T14:22:46.408Z,12.01
2017-03-25T14:23:56.696Z,12.02
2017-03-25T14:25:06.986Z,11.92
2017-03-25T14:26:17.267Z,12.02
2017-03-25T14:27:27.793Z,12.01
2017-03-25T14:28:38.067Z,12.11
2017-03-25T14:29:48.047Z,12.21
2017-03-25T14:30:58.328Z,12.21
2017-03-25T14:32:08.299Z,12.21
2017-03-25T14:33:18.878Z,12.11
2017-03-25T14:34:28.905Z,12.02
2017-03-25T14:35:38.555Z,12.21
2017-03-25T14:36:48.208Z,12.31
2017-03-25T14:37:58.222Z,12.31
2017-03-25T14:39:08.118Z,12.21
2017-03-25T14:40:17.461Z,12.31
2017-03-25T14:41:27.414Z,12.4
2017-03-25T14:42:37.378Z,12.5
2017-03-25T14:43:47.347Z,12.7
2017-03-25T14:44:57.561Z,12.5
2017-03-25T14:46:07.536Z,12.5
2017-03-25T14:47:17.817Z,12.6
2017-03-25T14:48:28.090Z,12.7
2017-03-25T14:49:38.054Z,12.7
2017-03-25T14:50:48.643Z,12.6
2017-03-25T14:51:58.927Z,12.7
2017-03-25T14:53:08.899Z,12.6
2017-03-25T14:54:19.202Z,12.88
2017-03-25T14:55:29.485Z,12.98
2017-03-25T14:56:39.745Z,12.79
2017-03-25T14:57:50.035Z,12.98
2017-03-25T14:59:00.332Z,12.98
2017-03-25T15:00:10.296Z,13.27
2017-03-25T15:01:19.638Z,13.17
2017-03-25T15:02:30.204Z,13.17
2017-03-25T15:03:40.500Z,13.17
2017-03-25T15:04:50.469Z,13.08
2017-03-25T15:06:00.123Z,12.98
2017-03-25T15:07:10.090Z,13.27
2017-03-25T15:08:20.637Z,13.56
2017-03-25T15:09:30.913Z,13.37
2017-03-25T15:10:41.191Z,13.17
2017-03-25T15:11:51.164Z,13.17
2017-03-25T15:13:00.824Z,13.46
2017-03-25T15:14:11.415Z,13.56
2017-03-25T15:15:21.396Z,13.56
2017-03-25T15:16:31.816Z,13.56